Saint Johns, AZ (85936)

1:43 AM MST on September 02, 2014 (GMT -0700)
Saint Johns Industrial | Change Station
CLOSE
Current Station
Airport
Location: St. Johns,
Elevation: 5725 ft
Nearby Weather Stations

Elev 5725 ft 34.52 °N, 109.38 °W | Updated 49 minutes ago

Clear
Clear
63 °F
Feels Like 63 °F
N
5
Wind Variable Wind from South

Today
High -- | Low -- °F
--% Chance of Precip.
Yesterday
High -- | Low -- °F
Precip. -- in
5:51 AM 6:42 PM
Waxing Crescent, 49% visible
Pressure 29.84 in
Visibility 10.0 miles
Clouds Clear
Dew Point 39 °F
Humidity 41%
Rainfall 0.00 in
Snow Depth Not available.
UV 0 out of 12
Pollen 8.50 out of 12
Air Quality Not available.
Flu Activity Not available.
METAR KSJN 020754Z AUTO 18004KT 10SM CLR 17/04 A3014 RMK AO2 SLP105 T01720039

More Conditions Fewer Conditions

Pressure 29.84 in
Visibility 10.0 miles
Clouds Clear
Dew Point 39 °F
Humidity 41%
Rainfall 0.00 in
Snow Depth Not available.
UV 0 out of 12
Pollen 8.50 out of 12
Air Quality Not available.
Flu Activity Not available.
METAR KSJN 020754Z AUTO 18004KT 10SM CLR 17/04 A3014 RMK AO2 SLP105 T01720039

More Conditions Fewer Conditions

10-Day Weather Forecast

Almanac

Astronomy

Sep. 02, 2014 Rise Set
Actual Time 5:51 AM MST 6:42 PM MST
Civil Twilight 5:25 AM MST 7:07 PM MST
Nautical Twilight 4:55 AM MST 7:38 PM MST
Astronomical Twilight 4:24 AM MST 8:09 PM MST
Moon 1:21 PM MST 11:56 PM MST
Length of Visible Light 13h 42m
Length of Day
12h 50m
Tomorrow will be 2m 3s shorter.
Waxing Crescent, 49% of the Moon is Illuminated
Today
Waxing Crescent
Sep 2
First Quarter
Sep 8
Full
Sep 15
Last Quarter
Sep 24
New

Today's Extremes

State Highs State Lows

Community

WunderPhotos

Upload Photos

1,749,587 photos uploaded!

WunderBlogs® & News

Nearby

Snow Depth

Station Depth Elevation
Maverick Fork 0 in 9200 ft
Coronado Trail 0 in 8400 ft
Wildcat 0 in 7850 ft
Beaver Head 26 in 7990 ft
Workman Creek 1 in 6900 ft

Earthquake Activity

City Distance Mag. Time & Date
No recent earthquake activity has been reported nearby.
Minimum magnitude displayed is 2.5.

Coastal Water Temperatures

Place Temperature
No Stations Reporting

Nearby Weather Stations